createdAt,value
2022-09-03T00:00:58.078Z,1001.97
2022-09-03T00:01:58.157Z,1001.97
2022-09-03T00:02:58.108Z,1001.98
2022-09-03T00:03:58.152Z,1002.03
2022-09-03T00:04:58.108Z,1002.01
2022-09-03T00:05:58.168Z,1002.03
2022-09-03T00:06:58.224Z,1002.05
2022-09-03T00:08:00.183Z,1001.99
2022-09-03T00:08:59.102Z,1001.99
2022-09-03T00:09:58.185Z,1002.02
2022-09-03T00:10:59.706Z,1001.98
2022-09-03T00:11:58.411Z,1002.03
2022-09-03T00:12:57.661Z,1002
2022-09-03T00:13:57.937Z,1001.99
2022-09-03T00:14:58.273Z,1001.94
2022-09-03T00:15:58.588Z,1001.97
2022-09-03T00:16:57.864Z,1002
2022-09-03T00:17:58.189Z,1001.98
2022-09-03T00:18:58.486Z,1001.97
2022-09-03T00:19:58.066Z,1001.97
2022-09-03T00:20:58.609Z,1001.94
2022-09-03T00:21:58.606Z,1001.94
2022-09-03T00:22:58.095Z,1001.95
2022-09-03T00:23:58.109Z,1001.97
2022-09-03T00:24:58.088Z,1001.97
2022-09-03T00:25:58.100Z,1001.94
2022-09-03T00:26:58.131Z,1001.95
2022-09-03T00:27:58.115Z,1001.95
2022-09-03T00:29:01.656Z,1001.94
2022-09-03T00:29:58.106Z,1002
2022-09-03T00:30:58.239Z,1002.01
2022-09-03T00:31:58.113Z,1002
2022-09-03T00:32:58.114Z,1001.97
2022-09-03T00:33:58.117Z,1001.94
2022-09-03T00:34:58.167Z,1001.97
2022-09-03T00:35:58.101Z,1001.98
2022-09-03T00:36:58.247Z,1001.99
2022-09-03T00:37:58.281Z,1001.98
2022-09-03T00:38:58.289Z,1001.98
2022-09-03T00:39:58.224Z,1002
2022-09-03T00:40:58.180Z,1002
2022-09-03T00:41:58.502Z,1001.97
2022-09-03T00:42:58.461Z,1002
2022-09-03T00:43:58.774Z,1001.99
2022-09-03T00:44:58.270Z,1002.02
2022-09-03T00:45:58.391Z,1002.04
2022-09-03T00:46:58.655Z,1002.01
2022-09-03T00:47:58.301Z,1002
2022-09-03T00:48:58.584Z,1002.04
2022-09-03T00:49:58.583Z,1002.05
2022-09-03T00:50:58.171Z,1002.04
2022-09-03T00:51:58.434Z,1002.02
2022-09-03T00:52:58.728Z,1002.04
2022-09-03T00:53:58.958Z,1002.04
2022-09-03T00:54:58.285Z,1002.05
2022-09-03T00:55:58.590Z,1002.03
2022-09-03T00:56:58.097Z,1002.07
2022-09-03T00:57:58.768Z,1002.04
2022-09-03T00:58:58.533Z,1002.05
2022-09-03T00:59:58.183Z,1002.04
2022-09-03T01:00:58.470Z,1002.07
2022-09-03T01:01:58.412Z,1002.05
2022-09-03T01:02:58.630Z,1002.05
2022-09-03T01:03:58.741Z,1002.04
2022-09-03T01:04:59.149Z,1002.01
2022-09-03T01:06:03.761Z,1002.03
2022-09-03T01:06:58.358Z,1002
2022-09-03T01:07:58.134Z,1002.03
2022-09-03T01:08:58.346Z,1001.99
2022-09-03T01:09:58.686Z,1002
2022-09-03T01:10:58.360Z,1001.98
2022-09-03T01:11:58.185Z,1002.01
2022-09-03T01:12:58.334Z,1001.95
2022-09-03T01:13:58.554Z,1002.01
2022-09-03T01:14:58.207Z,1002.04
2022-09-03T01:15:58.164Z,1002
2022-09-03T01:16:58.167Z,1002.02
2022-09-03T01:17:58.149Z,1002
2022-09-03T01:18:58.102Z,1002.01
2022-09-03T01:19:58.085Z,1002.03
2022-09-03T01:20:58.330Z,1002.06
2022-09-03T01:21:58.114Z,1002.09
2022-09-03T01:22:58.112Z,1002.03
2022-09-03T01:23:58.221Z,1002.04
2022-09-03T01:24:58.088Z,1002.02
2022-09-03T01:25:58.097Z,1002.06
2022-09-03T01:26:58.081Z,1002.04
2022-09-03T01:27:58.082Z,1002.03
2022-09-03T01:28:58.137Z,1002.06
2022-09-03T01:29:58.108Z,1002.08
2022-09-03T01:30:58.136Z,1002.1
2022-09-03T01:31:58.086Z,1002.07
2022-09-03T01:32:58.087Z,1002.08
2022-09-03T01:33:58.204Z,1002.12
2022-09-03T01:34:58.089Z,1002.11
2022-09-03T01:35:58.081Z,1002.11
2022-09-03T01:36:58.114Z,1002.12
2022-09-03T01:37:58.103Z,1002.13
2022-09-03T01:38:58.142Z,1002.12
2022-09-03T01:39:58.149Z,1002.13
2022-09-03T01:40:58.125Z,1002.12
2022-09-03T01:41:58.114Z,1002.08
2022-09-03T01:42:58.104Z,1002.07
2022-09-03T01:43:58.210Z,1002.09
2022-09-03T01:44:58.219Z,1002.11
2022-09-03T01:46:01.203Z,1002.09
2022-09-03T01:46:58.107Z,1002.09
2022-09-03T01:47:58.103Z,1002.09
2022-09-03T01:48:58.083Z,1002.06
2022-09-03T01:49:58.179Z,1002.1
2022-09-03T01:50:58.081Z,1002.09
2022-09-03T01:51:58.091Z,1002.05
2022-09-03T01:52:59.121Z,1002.09
2022-09-03T01:53:58.133Z,1002.09
2022-09-03T01:54:58.254Z,1002.05
2022-09-03T01:55:58.184Z,1002.04
2022-09-03T01:56:58.182Z,1002.04
2022-09-03T01:57:58.233Z,1002.04
2022-09-03T01:58:58.131Z,1002.07
2022-09-03T01:59:58.106Z,1002.04
2022-09-03T02:00:58.094Z,1002.06
2022-09-03T02:01:58.154Z,1002.09
2022-09-03T02:02:58.104Z,1002.09
2022-09-03T02:03:58.117Z,1002.06
2022-09-03T02:04:58.093Z,1002.03
2022-09-03T02:05:58.200Z,1002.02
2022-09-03T02:06:58.114Z,1002.03
2022-09-03T02:07:58.090Z,1001.99
2022-09-03T02:08:58.150Z,1001.95
2022-09-03T02:09:58.089Z,1002.01
2022-09-03T02:10:59.115Z,1001.97
2022-09-03T02:11:58.106Z,1001.98
2022-09-03T02:12:58.107Z,1001.99
2022-09-03T02:13:58.135Z,1001.98
2022-09-03T02:14:58.102Z,1001.99
2022-09-03T02:15:58.198Z,1001.98
2022-09-03T02:16:58.210Z,1002.03
2022-09-03T02:17:58.176Z,1002.02
2022-09-03T02:18:58.140Z,1002.03
2022-09-03T02:19:58.115Z,1001.97
2022-09-03T02:20:58.106Z,1002.03
2022-09-03T02:21:58.096Z,1002.01
2022-09-03T02:22:58.078Z,1001.98
2022-09-03T02:23:58.108Z,1002
2022-09-03T02:24:58.381Z,1001.99
2022-09-03T02:25:58.429Z,1002
2022-09-03T02:26:58.296Z,1002.03
2022-09-03T02:27:58.498Z,1001.97
2022-09-03T02:28:58.387Z,1001.98
2022-09-03T02:29:58.176Z,1001.95
2022-09-03T02:30:59.565Z,1001.95
2022-09-03T02:31:58.281Z,1001.92
2022-09-03T02:32:58.639Z,1001.96
2022-09-03T02:33:58.300Z,1001.98
2022-09-03T02:34:58.424Z,1001.98
2022-09-03T02:35:58.690Z,1001.94
2022-09-03T02:36:58.896Z,1001.97
2022-09-03T02:37:59.123Z,1001.95
2022-09-03T02:38:58.243Z,1001.93
2022-09-03T02:39:58.410Z,1001.95
2022-09-03T02:40:58.225Z,1001.97
2022-09-03T02:41:58.196Z,1001.98
2022-09-03T02:42:58.099Z,1001.95
2022-09-03T02:43:58.089Z,1001.97
2022-09-03T02:44:58.106Z,1001.9
2022-09-03T02:45:58.127Z,1001.92
2022-09-03T02:46:58.101Z,1001.96
2022-09-03T02:47:58.108Z,1001.95
2022-09-03T02:48:58.122Z,1001.95
2022-09-03T02:49:58.110Z,1001.97
2022-09-03T02:50:58.084Z,1001.95
2022-09-03T02:51:58.225Z,1001.94
2022-09-03T02:52:58.087Z,1001.96
2022-09-03T02:53:58.089Z,1001.99
2022-09-03T02:54:58.083Z,1001.95
2022-09-03T02:55:58.099Z,1001.97
2022-09-03T02:56:58.115Z,1001.88
2022-09-03T02:57:58.081Z,1001.87
2022-09-03T02:58:58.108Z,1001.93
2022-09-03T02:59:58.103Z,1001.87
2022-09-03T03:00:58.167Z,1001.86
2022-09-03T03:02:02.233Z,1001.87
2022-09-03T03:02:58.165Z,1001.91
2022-09-03T03:03:58.128Z,1001.9
2022-09-03T03:04:58.081Z,1001.88
2022-09-03T03:05:58.113Z,1001.89
2022-09-03T03:06:58.102Z,1001.9
2022-09-03T03:07:59.110Z,1001.89
2022-09-03T03:08:58.093Z,1001.89
2022-09-03T03:09:58.107Z,1001.87
2022-09-03T03:10:58.122Z,1001.9
2022-09-03T03:11:58.085Z,1001.89
2022-09-03T03:12:58.111Z,1001.9
2022-09-03T03:13:58.096Z,1001.92
2022-09-03T03:14:58.228Z,1001.91
2022-09-03T03:15:58.094Z,1001.93
2022-09-03T03:16:58.148Z,1001.91
2022-09-03T03:17:58.102Z,1001.99
2022-09-03T03:18:58.096Z,1001.97
2022-09-03T03:19:58.104Z,1002
2022-09-03T03:20:58.095Z,1002
2022-09-03T03:21:58.220Z,1001.99
2022-09-03T03:22:58.170Z,1001.97
2022-09-03T03:23:58.449Z,1001.98
2022-09-03T03:24:58.594Z,1001.97
2022-09-03T03:25:58.357Z,1001.99
2022-09-03T03:26:58.615Z,1001.95
2022-09-03T03:27:57.870Z,1001.97
2022-09-03T03:28:58.250Z,1001.97
2022-09-03T03:29:58.464Z,1001.97
2022-09-03T03:30:58.032Z,1001.95
2022-09-03T03:31:58.160Z,1001.92
2022-09-03T03:32:58.522Z,1001.94
2022-09-03T03:33:57.835Z,1001.97
2022-09-03T03:34:58.193Z,1001.91
2022-09-03T03:35:58.469Z,1001.95
2022-09-03T03:36:58.878Z,1001.93
2022-09-03T03:37:58.092Z,1001.89
2022-09-03T03:38:58.113Z,1001.94
2022-09-03T03:39:58.144Z,1001.95
2022-09-03T03:40:58.081Z,1001.95
2022-09-03T03:41:58.099Z,1001.91
2022-09-03T03:42:58.211Z,1001.91
2022-09-03T03:43:58.086Z,1001.94
2022-09-03T03:44:58.188Z,1001.96
2022-09-03T03:45:58.141Z,1001.98
2022-09-03T03:46:58.098Z,1001.97
2022-09-03T03:47:58.254Z,1002.01
2022-09-03T03:48:58.460Z,1001.96
2022-09-03T03:49:58.215Z,1001.95
2022-09-03T03:50:58.204Z,1001.95
2022-09-03T03:51:58.287Z,1001.94
2022-09-03T03:52:58.544Z,1001.91
2022-09-03T03:54:00.125Z,1001.94
2022-09-03T03:54:58.124Z,1001.94
2022-09-03T03:55:58.436Z,1001.93
2022-09-03T03:56:59.285Z,1001.92
2022-09-03T03:57:58.344Z,1001.87
2022-09-03T03:58:58.940Z,1001.89
2022-09-03T03:59:58.460Z,1001.87
2022-09-03T04:00:58.271Z,1001.86
2022-09-03T04:01:58.461Z,1001.84
2022-09-03T04:02:58.091Z,1001.84
2022-09-03T04:03:59.154Z,1001.82
2022-09-03T04:04:59.368Z,1001.79
2022-09-03T04:05:58.391Z,1001.77
2022-09-03T04:06:58.510Z,1001.8
2022-09-03T04:07:58.422Z,1001.82
2022-09-03T04:08:58.406Z,1001.79
2022-09-03T04:09:58.828Z,1001.77
2022-09-03T04:10:58.271Z,1001.79
2022-09-03T04:11:58.547Z,1001.76
2022-09-03T04:12:58.555Z,1001.76
2022-09-03T04:13:58.875Z,1001.74
2022-09-03T04:14:58.407Z,1001.76
2022-09-03T04:15:58.712Z,1001.74
2022-09-03T04:16:58.395Z,1001.76
2022-09-03T04:17:58.262Z,1001.75
2022-09-03T04:18:58.550Z,1001.73
2022-09-03T04:19:58.301Z,1001.73
2022-09-03T04:20:58.391Z,1001.73
2022-09-03T04:21:58.344Z,1001.74
2022-09-03T04:22:58.412Z,1001.74
2022-09-03T04:23:58.258Z,1001.76
2022-09-03T04:24:58.333Z,1001.79
2022-09-03T04:25:58.214Z,1001.76
2022-09-03T04:26:58.126Z,1001.76
2022-09-03T04:27:59.315Z,1001.76
2022-09-03T04:28:58.375Z,1001.68
2022-09-03T04:29:58.237Z,1001.69
2022-09-03T04:30:58.532Z,1001.68
2022-09-03T04:31:58.084Z,1001.68
2022-09-03T04:32:58.096Z,1001.65
2022-09-03T04:33:58.227Z,1001.67
2022-09-03T04:34:58.092Z,1001.65
2022-09-03T04:35:58.091Z,1001.63
2022-09-03T04:36:58.101Z,1001.64
2022-09-03T04:37:58.097Z,1001.66
2022-09-03T04:38:58.139Z,1001.65
2022-09-03T04:39:58.165Z,1001.62
2022-09-03T04:40:58.104Z,1001.67
2022-09-03T04:42:01.203Z,1001.66
2022-09-03T04:42:58.094Z,1001.68
2022-09-03T04:43:58.107Z,1001.68
2022-09-03T04:44:58.093Z,1001.67
2022-09-03T04:45:58.116Z,1001.68
2022-09-03T04:46:58.085Z,1001.69
2022-09-03T04:47:58.112Z,1001.68
2022-09-03T04:48:58.196Z,1001.68
2022-09-03T04:49:58.113Z,1001.69
2022-09-03T04:50:58.081Z,1001.72
2022-09-03T04:51:58.171Z,1001.69
2022-09-03T04:52:58.205Z,1001.67
2022-09-03T04:53:58.104Z,1001.65
2022-09-03T04:54:58.092Z,1001.7
2022-09-03T04:55:58.111Z,1001.69
2022-09-03T04:56:58.103Z,1001.68
2022-09-03T04:57:58.088Z,1001.66
2022-09-03T04:58:58.098Z,1001.67
2022-09-03T04:59:58.082Z,1001.64
2022-09-03T05:00:58.188Z,1001.66
2022-09-03T05:01:58.179Z,1001.69
2022-09-03T05:02:58.281Z,1001.69
2022-09-03T05:03:58.180Z,1001.7
2022-09-03T05:04:58.085Z,1001.75
2022-09-03T05:05:58.137Z,1001.69
2022-09-03T05:06:58.101Z,1001.73
2022-09-03T05:07:58.108Z,1001.68
2022-09-03T05:08:58.114Z,1001.66
2022-09-03T05:09:58.081Z,1001.71
2022-09-03T05:10:58.116Z,1001.67
2022-09-03T05:11:58.127Z,1001.67
2022-09-03T05:12:58.127Z,1001.67
2022-09-03T05:13:58.243Z,1001.64
2022-09-03T05:14:58.105Z,1001.65
2022-09-03T05:15:58.166Z,1001.66
2022-09-03T05:16:58.123Z,1001.65
2022-09-03T05:17:58.107Z,1001.64
2022-09-03T05:18:58.086Z,1001.69
2022-09-03T05:19:58.094Z,1001.65
2022-09-03T05:20:58.101Z,1001.66
2022-09-03T05:21:58.127Z,1001.64
2022-09-03T05:22:58.130Z,1001.66
2022-09-03T05:23:58.109Z,1001.63
2022-09-03T05:24:58.282Z,1001.6
2022-09-03T05:25:58.074Z,1001.64
2022-09-03T05:26:58.093Z,1001.6
2022-09-03T05:27:58.122Z,1001.63
2022-09-03T05:28:58.153Z,1001.64
2022-09-03T05:29:58.118Z,1001.59
2022-09-03T05:30:58.090Z,1001.58
2022-09-03T05:31:58.178Z,1001.55
2022-09-03T05:32:58.102Z,1001.56
2022-09-03T05:33:58.115Z,1001.59
2022-09-03T05:34:58.110Z,1001.54
2022-09-03T05:35:58.095Z,1001.57
2022-09-03T05:36:58.079Z,1001.5
2022-09-03T05:37:58.077Z,1001.56
2022-09-03T05:38:59.102Z,1001.55
2022-09-03T05:39:58.342Z,1001.57
2022-09-03T05:40:58.079Z,1001.61
2022-09-03T05:41:58.168Z,1001.6
2022-09-03T05:42:58.192Z,1001.57
2022-09-03T05:43:58.410Z,1001.57
2022-09-03T05:44:58.280Z,1001.54
2022-09-03T05:45:58.598Z,1001.53
2022-09-03T05:46:58.406Z,1001.53
2022-09-03T05:47:58.431Z,1001.5
2022-09-03T05:48:58.653Z,1001.54
2022-09-03T05:49:59.069Z,1001.52
2022-09-03T05:50:59.179Z,1001.5
2022-09-03T05:51:58.116Z,1001.51
2022-09-03T05:52:58.080Z,1001.51
2022-09-03T05:53:58.260Z,1001.55
2022-09-03T05:54:58.454Z,1001.55
2022-09-03T05:55:58.074Z,1001.53
2022-09-03T05:56:58.091Z,1001.5
2022-09-03T05:57:58.081Z,1001.47
2022-09-03T05:58:58.087Z,1001.48
2022-09-03T05:59:58.139Z,1001.49
2022-09-03T06:00:58.091Z,1001.47
2022-09-03T06:02:02.907Z,1001.46
2022-09-03T06:02:58.154Z,1001.5
2022-09-03T06:03:58.106Z,1001.47
2022-09-03T06:04:58.131Z,1001.52
2022-09-03T06:05:58.107Z,1001.52
2022-09-03T06:06:58.092Z,1001.47
2022-09-03T06:07:58.079Z,1001.49
2022-09-03T06:08:58.083Z,1001.5
2022-09-03T06:09:58.122Z,1001.5
2022-09-03T06:10:58.090Z,1001.51
2022-09-03T06:12:05.807Z,1001.51
2022-09-03T06:12:58.124Z,1001.54
2022-09-03T06:13:58.204Z,1001.53
2022-09-03T06:14:59.106Z,1001.55
2022-09-03T06:15:58.113Z,1001.5
2022-09-03T06:16:58.110Z,1001.52
2022-09-03T06:17:58.087Z,1001.52
2022-09-03T06:18:58.089Z,1001.51
2022-09-03T06:19:58.135Z,1001.5
2022-09-03T06:20:58.113Z,1001.5
2022-09-03T06:21:58.114Z,1001.56
2022-09-03T06:22:58.279Z,1001.53
2022-09-03T06:24:01.132Z,1001.54
2022-09-03T06:24:58.142Z,1001.54
2022-09-03T06:26:00.075Z,1001.55
2022-09-03T06:26:58.081Z,1001.56
2022-09-03T06:27:58.091Z,1001.53
2022-09-03T06:28:58.140Z,1001.53
2022-09-03T06:29:58.106Z,1001.51
2022-09-03T06:30:58.068Z,1001.51
2022-09-03T06:31:59.124Z,1001.54
2022-09-03T06:32:58.084Z,1001.51
2022-09-03T06:34:04.358Z,1001.54
2022-09-03T06:34:58.190Z,1001.56
2022-09-03T06:35:58.097Z,1001.58
2022-09-03T06:36:58.329Z,1001.59
2022-09-03T06:37:58.139Z,1001.56
2022-09-03T06:38:58.384Z,1001.58
2022-09-03T06:39:58.758Z,1001.56
2022-09-03T06:40:58.536Z,1001.58
2022-09-03T06:41:57.815Z,1001.61
2022-09-03T06:42:58.141Z,1001.59
2022-09-03T06:43:58.449Z,1001.59
2022-09-03T06:44:57.813Z,1001.63
2022-09-03T06:45:58.147Z,1001.56
2022-09-03T06:46:58.386Z,1001.62
2022-09-03T06:47:58.560Z,1001.59
2022-09-03T06:48:58.061Z,1001.56
2022-09-03T06:49:58.300Z,1001.59
2022-09-03T06:50:58.838Z,1001.57
2022-09-03T06:51:58.111Z,1001.55
2022-09-03T06:52:58.117Z,1001.56
2022-09-03T06:53:58.259Z,1001.51
2022-09-03T06:54:58.184Z,1001.57
2022-09-03T06:55:58.339Z,1001.56
2022-09-03T06:56:58.495Z,1001.52
2022-09-03T06:58:01.638Z,1001.55
2022-09-03T06:58:58.267Z,1001.54
2022-09-03T06:59:58.344Z,1001.63
2022-09-03T07:00:58.678Z,1001.61
2022-09-03T07:01:58.509Z,1001.61
2022-09-03T07:02:58.202Z,1001.65
2022-09-03T07:03:58.492Z,1001.52
2022-09-03T07:04:58.249Z,1001.54
2022-09-03T07:05:58.551Z,1001.51
2022-09-03T07:06:58.402Z,1001.55
2022-09-03T07:07:58.079Z,1001.5
2022-09-03T07:08:58.992Z,1001.47
2022-09-03T07:09:58.602Z,1001.52
2022-09-03T07:10:58.087Z,1001.54
2022-09-03T07:11:58.069Z,1001.53
2022-09-03T07:12:58.135Z,1001.58
2022-09-03T07:13:58.125Z,1001.55
2022-09-03T07:14:58.113Z,1001.58
2022-09-03T07:15:58.635Z,1001.56
2022-09-03T07:16:58.567Z,1001.57
2022-09-03T07:17:58.342Z,1001.58
2022-09-03T07:18:58.577Z,1001.53
2022-09-03T07:19:58.519Z,1001.56
2022-09-03T07:20:58.698Z,1001.58
2022-09-03T07:21:58.494Z,1001.56
2022-09-03T07:22:58.236Z,1001.52
2022-09-03T07:23:58.528Z,1001.55
2022-09-03T07:24:58.815Z,1001.53
2022-09-03T07:25:58.092Z,1001.5
2022-09-03T07:26:58.332Z,1001.49
2022-09-03T07:27:58.704Z,1001.46
2022-09-03T07:28:58.994Z,1001.45
2022-09-03T07:29:59.289Z,1001.5
2022-09-03T07:30:58.618Z,1001.44
2022-09-03T07:31:58.924Z,1001.46
2022-09-03T07:32:59.174Z,1001.46
2022-09-03T07:33:58.329Z,1001.43
2022-09-03T07:34:58.453Z,1001.45
2022-09-03T07:35:58.099Z,1001.43
2022-09-03T07:36:58.295Z,1001.44
2022-09-03T07:37:58.322Z,1001.5
2022-09-03T07:38:58.373Z,1001.44
2022-09-03T07:39:58.212Z,1001.46
2022-09-03T07:40:58.185Z,1001.44
2022-09-03T07:41:58.460Z,1001.45
2022-09-03T07:42:58.075Z,1001.41
2022-09-03T07:43:58.289Z,1001.4
2022-09-03T07:44:58.115Z,1001.41
2022-09-03T07:45:58.097Z,1001.42
2022-09-03T07:46:58.252Z,1001.42
2022-09-03T07:47:58.200Z,1001.41
2022-09-03T07:48:58.114Z,1001.39
2022-09-03T07:49:58.204Z,1001.37
2022-09-03T07:50:58.093Z,1001.42
2022-09-03T07:51:58.089Z,1001.37
2022-09-03T07:52:58.072Z,1001.37
2022-09-03T07:53:58.080Z,1001.36
2022-09-03T07:54:58.136Z,1001.41
2022-09-03T07:55:58.088Z,1001.38
2022-09-03T07:56:59.084Z,1001.35
2022-09-03T07:57:58.088Z,1001.37
2022-09-03T07:58:58.078Z,1001.31
2022-09-03T07:59:58.198Z,1001.36
2022-09-03T08:00:58.144Z,1001.33
2022-09-03T08:01:58.126Z,1001.39
2022-09-03T08:02:59.086Z,1001.36
2022-09-03T08:03:58.096Z,1001.36
2022-09-03T08:04:58.105Z,1001.39
2022-09-03T08:05:58.082Z,1001.39
2022-09-03T08:06:58.111Z,1001.35
2022-09-03T08:07:58.173Z,1001.37
2022-09-03T08:09:05.461Z,1001.4
2022-09-03T08:09:58.142Z,1001.42
2022-09-03T08:10:58.158Z,1001.38
2022-09-03T08:11:58.417Z,1001.42
2022-09-03T08:12:58.085Z,1001.46
2022-09-03T08:13:58.080Z,1001.45
2022-09-03T08:14:58.102Z,1001.43
2022-09-03T08:15:58.139Z,1001.39
2022-09-03T08:16:58.106Z,1001.41
2022-09-03T08:18:07.098Z,1001.44
2022-09-03T08:18:58.193Z,1001.36
2022-09-03T08:19:58.138Z,1001.34
2022-09-03T08:20:58.088Z,1001.35
2022-09-03T08:21:58.107Z,1001.4
2022-09-03T08:22:58.074Z,1001.39
2022-09-03T08:23:58.080Z,1001.38
2022-09-03T08:24:58.114Z,1001.41
2022-09-03T08:25:58.085Z,1001.41
2022-09-03T08:26:58.104Z,1001.41
2022-09-03T08:27:58.214Z,1001.43
2022-09-03T08:28:58.095Z,1001.44
2022-09-03T08:29:58.217Z,1001.43
2022-09-03T08:30:58.118Z,1001.39
2022-09-03T08:31:59.750Z,1001.43
2022-09-03T08:32:58.224Z,1001.44
2022-09-03T08:33:58.102Z,1001.39
2022-09-03T08:34:58.110Z,1001.4
2022-09-03T08:35:58.078Z,1001.38
2022-09-03T08:36:59.123Z,1001.43
2022-09-03T08:38:01.086Z,1001.44
2022-09-03T08:38:58.102Z,1001.43
2022-09-03T08:39:58.202Z,1001.44
2022-09-03T08:40:58.291Z,1001.46
2022-09-03T08:41:58.092Z,1001.49
2022-09-03T08:42:58.110Z,1001.45
2022-09-03T08:43:58.300Z,1001.49
2022-09-03T08:44:58.268Z,1001.51
2022-09-03T08:45:58.077Z,1001.48
2022-09-03T08:46:58.285Z,1001.5
2022-09-03T08:47:58.074Z,1001.48
2022-09-03T08:48:58.182Z,1001.5
2022-09-03T08:49:58.309Z,1001.48
2022-09-03T08:50:58.192Z,1001.51
2022-09-03T08:51:58.509Z,1001.5
2022-09-03T08:52:58.566Z,1001.53
2022-09-03T08:53:58.679Z,1001.49
2022-09-03T08:54:58.335Z,1001.51
2022-09-03T08:55:58.746Z,1001.49
2022-09-03T08:56:58.396Z,1001.5
2022-09-03T08:57:58.087Z,1001.52
2022-09-03T08:58:58.354Z,1001.49
2022-09-03T08:59:58.273Z,1001.52
2022-09-03T09:00:58.071Z,1001.53
2022-09-03T09:01:58.331Z,1001.52
2022-09-03T09:02:58.250Z,1001.52
2022-09-03T09:03:58.639Z,1001.53
2022-09-03T09:04:58.159Z,1001.52
2022-09-03T09:05:58.672Z,1001.51
2022-09-03T09:06:58.410Z,1001.54
2022-09-03T09:07:58.078Z,1001.53
2022-09-03T09:08:58.114Z,1001.49
2022-09-03T09:09:58.161Z,1001.52
2022-09-03T09:10:58.121Z,1001.51
2022-09-03T09:11:58.100Z,1001.52
2022-09-03T09:12:58.084Z,1001.54
2022-09-03T09:13:58.184Z,1001.55
2022-09-03T09:14:58.134Z,1001.49
2022-09-03T09:15:58.416Z,1001.44
2022-09-03T09:16:58.097Z,1001.43
2022-09-03T09:17:58.158Z,1001.48
2022-09-03T09:18:58.106Z,1001.47
2022-09-03T09:19:58.156Z,1001.44
2022-09-03T09:20:58.107Z,1001.41
2022-09-03T09:21:58.133Z,1001.42
2022-09-03T09:22:58.102Z,1001.46
2022-09-03T09:23:58.097Z,1001.47
2022-09-03T09:24:58.142Z,1001.46
2022-09-03T09:25:58.105Z,1001.47
2022-09-03T09:26:58.223Z,1001.45
2022-09-03T09:27:58.195Z,1001.48
2022-09-03T09:28:58.114Z,1001.44
2022-09-03T09:29:58.169Z,1001.47
2022-09-03T09:30:58.162Z,1001.47
2022-09-03T09:31:58.104Z,1001.46
2022-09-03T09:32:58.143Z,1001.46
2022-09-03T09:34:00.418Z,1001.45
2022-09-03T09:34:58.128Z,1001.43
2022-09-03T09:35:58.117Z,1001.45
2022-09-03T09:36:58.106Z,1001.42
2022-09-03T09:37:58.142Z,1001.39
2022-09-03T09:38:58.119Z,1001.4
2022-09-03T09:39:58.254Z,1001.38
2022-09-03T09:40:58.111Z,1001.41
2022-09-03T09:41:58.137Z,1001.4
2022-09-03T09:42:58.157Z,1001.39
2022-09-03T09:43:58.107Z,1001.36
2022-09-03T09:44:58.181Z,1001.35
2022-09-03T09:45:58.095Z,1001.34
2022-09-03T09:46:58.143Z,1001.31
2022-09-03T09:47:58.111Z,1001.29
2022-09-03T09:48:58.111Z,1001.29
2022-09-03T09:49:58.158Z,1001.26
2022-09-03T09:50:58.142Z,1001.24
2022-09-03T09:51:58.344Z,1001.19
2022-09-03T09:53:02.205Z,1001.22
2022-09-03T09:53:58.270Z,1001.22
2022-09-03T09:54:58.491Z,1001.19
2022-09-03T09:55:58.832Z,1001.24
2022-09-03T09:56:58.633Z,1001.2
2022-09-03T09:57:57.867Z,1001.21
2022-09-03T09:58:58.117Z,1001.19
2022-09-03T09:59:58.500Z,1001.19
2022-09-03T10:01:00.792Z,1001.15
2022-09-03T10:01:58.242Z,1001.18
2022-09-03T10:02:58.514Z,1001.19
2022-09-03T10:03:58.770Z,1001.19
2022-09-03T10:04:59.126Z,1001.19
2022-09-03T10:05:59.410Z,1001.16
2022-09-03T10:06:58.825Z,1001.12
2022-09-03T10:07:59.042Z,1001.17
2022-09-03T10:08:58.186Z,1001.15
2022-09-03T10:10:00.631Z,1001.17
2022-09-03T10:10:58.374Z,1001.15
2022-09-03T10:11:58.689Z,1001.1
2022-09-03T10:12:58.355Z,1001.15
2022-09-03T10:13:58.206Z,1001.1
2022-09-03T10:14:58.501Z,1001.11
2022-09-03T10:15:58.304Z,1001.09
2022-09-03T10:16:59.203Z,1001.13
2022-09-03T10:17:58.250Z,1001.07
2022-09-03T10:18:58.574Z,1001.11
2022-09-03T10:19:58.196Z,1001.15
2022-09-03T10:20:58.206Z,1001.1
2022-09-03T10:21:58.308Z,1001.11
2022-09-03T10:22:59.179Z,1001.11
2022-09-03T10:23:58.196Z,1001.04
2022-09-03T10:24:58.341Z,1001.1
2022-09-03T10:25:58.163Z,1001.12
2022-09-03T10:26:58.241Z,1001.1
2022-09-03T10:28:02.563Z,1001.05
2022-09-03T10:28:59.325Z,1000.99
2022-09-03T10:29:58.192Z,1001
2022-09-03T10:30:58.375Z,1001.04
2022-09-03T10:31:58.568Z,1001.03
2022-09-03T10:32:58.350Z,1001.01
2022-09-03T10:33:58.600Z,1001.05
2022-09-03T10:34:58.539Z,1001.01
2022-09-03T10:35:58.804Z,1001.05
2022-09-03T10:36:58.491Z,1001.08
2022-09-03T10:37:58.415Z,1001.03
2022-09-03T10:38:58.240Z,1001.02
2022-09-03T10:39:58.447Z,1001.05
2022-09-03T10:40:58.665Z,1001.03
2022-09-03T10:41:58.747Z,1001.01
2022-09-03T10:42:59.005Z,1001.03
2022-09-03T10:43:58.828Z,1000.97
2022-09-03T10:44:59.128Z,1000.92
2022-09-03T10:45:58.462Z,1000.93
2022-09-03T10:46:58.769Z,1000.94
2022-09-03T10:47:59.213Z,1000.91
2022-09-03T10:48:59.309Z,1000.95
2022-09-03T10:49:58.424Z,1000.92
2022-09-03T10:50:58.769Z,1000.91
2022-09-03T10:51:59.027Z,1000.93
2022-09-03T10:52:58.609Z,1000.91
2022-09-03T10:53:58.302Z,1000.9
2022-09-03T10:54:58.554Z,1000.86
2022-09-03T10:55:58.198Z,1000.86
2022-09-03T10:56:58.215Z,1000.88
2022-09-03T10:57:58.308Z,1000.84
2022-09-03T10:58:58.170Z,1000.87
2022-09-03T10:59:58.173Z,1000.87
2022-09-03T11:00:58.167Z,1000.81
2022-09-03T11:01:58.160Z,1000.8
2022-09-03T11:02:58.366Z,1000.81
2022-09-03T11:03:58.220Z,1000.82
2022-09-03T11:04:58.206Z,1000.85
2022-09-03T11:05:58.205Z,1000.86
2022-09-03T11:06:58.222Z,1000.85
2022-09-03T11:07:58.272Z,1000.85
2022-09-03T11:09:00.129Z,1000.83
2022-09-03T11:09:58.232Z,1000.78
2022-09-03T11:10:58.207Z,1000.72
2022-09-03T11:11:58.176Z,1000.8
2022-09-03T11:12:58.195Z,1000.8
2022-09-03T11:13:58.199Z,1000.78
2022-09-03T11:14:58.207Z,1000.79
2022-09-03T11:15:58.237Z,1000.82
2022-09-03T11:16:58.223Z,1000.85
2022-09-03T11:17:58.342Z,1000.8
2022-09-03T11:18:58.204Z,1000.85
2022-09-03T11:19:58.205Z,1000.83
2022-09-03T11:20:58.188Z,1000.77
2022-09-03T11:21:58.389Z,1000.82
2022-09-03T11:22:58.186Z,1000.84
2022-09-03T11:23:58.279Z,1000.83
2022-09-03T11:24:58.210Z,1000.83
2022-09-03T11:25:58.207Z,1000.85
2022-09-03T11:26:58.246Z,1000.84
2022-09-03T11:27:59.219Z,1000.82
2022-09-03T11:28:58.339Z,1000.87
2022-09-03T11:29:58.212Z,1000.8
2022-09-03T11:30:58.234Z,1000.87
2022-09-03T11:31:58.221Z,1000.88
2022-09-03T11:32:58.341Z,1000.77
2022-09-03T11:33:58.232Z,1000.8
2022-09-03T11:34:58.234Z,1000.83
2022-09-03T11:35:58.205Z,1000.8
2022-09-03T11:36:58.209Z,1000.83
2022-09-03T11:37:58.208Z,1000.84
2022-09-03T11:38:58.228Z,1000.76
2022-09-03T11:39:59.290Z,1000.81
2022-09-03T11:40:58.339Z,1000.8
2022-09-03T11:41:58.346Z,1000.8
2022-09-03T11:42:58.266Z,1000.77
2022-09-03T11:44:04.715Z,1000.79
2022-09-03T11:44:58.224Z,1000.78
2022-09-03T11:45:58.289Z,1000.77
2022-09-03T11:46:58.224Z,1000.74
2022-09-03T11:47:58.253Z,1000.82
2022-09-03T11:48:58.239Z,1000.82
2022-09-03T11:49:58.365Z,1000.8
2022-09-03T11:50:58.238Z,1000.83
2022-09-03T11:51:58.230Z,1000.81
2022-09-03T11:52:59.255Z,1000.77
2022-09-03T11:53:58.356Z,1000.77
2022-09-03T11:54:59.128Z,1000.81
2022-09-03T11:55:58.271Z,1000.79
2022-09-03T11:56:58.220Z,1000.77
2022-09-03T11:57:58.371Z,1000.8
2022-09-03T11:58:58.229Z,1000.85
2022-09-03T12:00:01.258Z,1000.78
2022-09-03T12:00:58.296Z,1000.77
2022-09-03T12:01:58.349Z,1000.78
2022-09-03T12:03:01.318Z,1000.77
2022-09-03T12:03:58.215Z,1000.75
2022-09-03T12:04:58.784Z,1000.76
2022-09-03T12:05:58.293Z,1000.76
2022-09-03T12:06:59.136Z,1000.8
2022-09-03T12:07:58.529Z,1000.73
2022-09-03T12:08:58.798Z,1000.7
2022-09-03T12:09:58.605Z,1000.73